createdAt,value
2017-03-18T00:00:01.782Z,19.67
2017-03-18T00:00:15.917Z,19.71
2017-03-18T00:00:30.040Z,19.68
2017-03-18T00:00:44.176Z,19.71
2017-03-18T00:00:58.369Z,19.64
2017-03-18T00:01:12.510Z,19.75
2017-03-18T00:01:26.716Z,19.71
2017-03-18T00:01:40.937Z,19.7
2017-03-18T00:01:55.115Z,19.71
2017-03-18T00:02:09.311Z,19.7
2017-03-18T00:02:23.503Z,19.67
2017-03-18T00:02:37.932Z,19.7
2017-03-18T00:02:52.060Z,19.7
2017-03-18T00:03:06.750Z,19.71
2017-03-18T00:03:20.878Z,19.72
2017-03-18T00:03:35.029Z,19.7
2017-03-18T00:03:49.127Z,19.63
2017-03-18T00:04:03.270Z,19.64
2017-03-18T00:04:17.539Z,19.64
2017-03-18T00:04:31.798Z,19.63
2017-03-18T00:04:45.896Z,19.64
2017-03-18T00:05:00.042Z,19.64
2017-03-18T00:05:14.314Z,19.67
2017-03-18T00:05:28.523Z,19.67
2017-03-18T00:05:42.634Z,19.65
2017-03-18T00:05:56.749Z,19.68
2017-03-18T00:06:10.916Z,19.68
2017-03-18T00:06:25.038Z,19.68
2017-03-18T00:06:39.204Z,19.63
2017-03-18T00:06:53.285Z,19.7
2017-03-18T00:07:07.487Z,19.65
2017-03-18T00:07:21.631Z,19.7
2017-03-18T00:07:36.182Z,19.67
2017-03-18T00:07:50.501Z,19.64
2017-03-18T00:08:04.971Z,19.65
2017-03-18T00:08:19.053Z,19.65
2017-03-18T00:08:34.657Z,19.68
2017-03-18T00:08:48.821Z,19.67
2017-03-18T00:09:03.036Z,19.61
2017-03-18T00:09:17.297Z,19.65
2017-03-18T00:09:33.742Z,19.68
2017-03-18T00:09:48.020Z,19.6
2017-03-18T00:10:02.160Z,19.7
2017-03-18T00:10:21.034Z,19.55
2017-03-18T00:10:37.775Z,19.64
2017-03-18T00:10:52.149Z,19.63
2017-03-18T00:11:06.455Z,19.67
2017-03-18T00:11:20.640Z,19.61
2017-03-18T00:11:34.774Z,19.61
2017-03-18T00:11:48.935Z,19.67
2017-03-18T00:12:03.108Z,19.63
2017-03-18T00:12:17.283Z,19.68
2017-03-18T00:12:31.485Z,19.71
2017-03-18T00:12:45.646Z,19.7
2017-03-18T00:12:59.783Z,19.61
2017-03-18T00:13:13.855Z,19.68
2017-03-18T00:13:28.011Z,19.68
2017-03-18T00:13:42.187Z,19.68
2017-03-18T00:13:56.351Z,19.67
2017-03-18T00:14:10.598Z,19.65
2017-03-18T00:14:24.717Z,19.64
2017-03-18T00:14:38.863Z,19.7
2017-03-18T00:14:52.993Z,19.67
2017-03-18T00:15:07.162Z,19.65
2017-03-18T00:15:21.348Z,19.7
2017-03-18T00:15:35.517Z,19.67
2017-03-18T00:15:49.629Z,19.64
2017-03-18T00:16:03.753Z,19.72
2017-03-18T00:16:17.886Z,19.7
2017-03-18T00:16:32.060Z,19.7
2017-03-18T00:16:46.248Z,19.67
2017-03-18T00:17:00.350Z,19.65
2017-03-18T00:17:14.564Z,19.71
2017-03-18T00:17:28.697Z,19.68
2017-03-18T00:17:43.230Z,19.67
2017-03-18T00:17:57.351Z,19.7
2017-03-18T00:18:11.512Z,19.71
2017-03-18T00:18:25.701Z,19.78
2017-03-18T00:18:39.883Z,19.7
2017-03-18T00:18:54.042Z,19.7
2017-03-18T00:19:08.188Z,19.72
2017-03-18T00:19:22.361Z,19.7
2017-03-18T00:19:36.539Z,19.67
2017-03-18T00:19:50.706Z,19.71
2017-03-18T00:20:04.942Z,19.71
2017-03-18T00:20:19.122Z,19.71
2017-03-18T00:20:33.283Z,19.72
2017-03-18T00:20:47.417Z,19.78
2017-03-18T00:21:01.667Z,19.71
2017-03-18T00:21:15.857Z,19.74
2017-03-18T00:21:30.035Z,19.68
2017-03-18T00:21:44.188Z,19.72
2017-03-18T00:21:58.334Z,19.74
2017-03-18T00:22:12.441Z,19.72
2017-03-18T00:22:26.548Z,19.67
2017-03-18T00:22:40.648Z,19.71
2017-03-18T00:22:54.738Z,19.67
2017-03-18T00:23:08.927Z,19.68
2017-03-18T00:23:23.042Z,19.67
2017-03-18T00:23:37.193Z,19.72
2017-03-18T00:23:51.265Z,19.75
2017-03-18T00:24:05.395Z,19.71
2017-03-18T00:24:19.507Z,19.6
2017-03-18T00:24:33.655Z,19.72
2017-03-18T00:24:47.797Z,19.65
2017-03-18T00:25:02.032Z,19.64
2017-03-18T00:25:16.177Z,19.67
2017-03-18T00:25:30.333Z,19.67
2017-03-18T00:25:44.488Z,19.64
2017-03-18T00:25:58.680Z,19.64
2017-03-18T00:26:12.761Z,19.65
2017-03-18T00:26:26.941Z,19.63
2017-03-18T00:26:41.081Z,19.74
2017-03-18T00:26:55.221Z,19.74
2017-03-18T00:27:09.456Z,19.68
2017-03-18T00:27:23.650Z,19.68
2017-03-18T00:27:37.792Z,19.67
2017-03-18T00:27:51.937Z,19.68
2017-03-18T00:28:06.152Z,19.67
2017-03-18T00:28:20.271Z,19.67
2017-03-18T00:28:34.462Z,19.67
2017-03-18T00:28:48.612Z,19.7
2017-03-18T00:29:02.740Z,19.67
2017-03-18T00:29:16.914Z,19.67
2017-03-18T00:29:31.148Z,19.64
2017-03-18T00:29:45.318Z,19.68
2017-03-18T00:29:59.450Z,19.7
2017-03-18T00:30:13.571Z,19.7
2017-03-18T00:30:27.660Z,19.68
2017-03-18T00:30:41.827Z,19.68
2017-03-18T00:30:56.032Z,19.7
2017-03-18T00:31:10.227Z,19.7
2017-03-18T00:31:24.374Z,19.7
2017-03-18T00:31:38.552Z,19.68
2017-03-18T00:31:52.693Z,19.64
2017-03-18T00:32:06.892Z,19.65
2017-03-18T00:32:21.037Z,19.71
2017-03-18T00:32:35.146Z,19.68
2017-03-18T00:32:49.561Z,19.68
2017-03-18T00:33:03.688Z,19.75
2017-03-18T00:33:17.886Z,19.68
2017-03-18T00:33:32.113Z,19.64
2017-03-18T00:33:46.272Z,19.67
2017-03-18T00:34:00.459Z,19.68
2017-03-18T00:34:14.609Z,19.64
2017-03-18T00:34:28.768Z,19.67
2017-03-18T00:34:42.921Z,19.64
2017-03-18T00:34:57.105Z,19.65
2017-03-18T00:35:11.306Z,19.67
2017-03-18T00:35:25.492Z,19.65
2017-03-18T00:35:39.682Z,19.65
2017-03-18T00:35:53.850Z,19.67
2017-03-18T00:36:08.187Z,19.65
2017-03-18T00:36:22.326Z,19.7
2017-03-18T00:36:36.566Z,19.65
2017-03-18T00:36:50.740Z,19.64
2017-03-18T00:37:04.865Z,19.64
2017-03-18T00:37:19.082Z,19.65
2017-03-18T00:37:33.856Z,19.64
2017-03-18T00:37:49.428Z,19.6
2017-03-18T00:38:03.665Z,19.57
2017-03-18T00:38:17.918Z,19.56
2017-03-18T00:38:32.001Z,19.47
2017-03-18T00:38:46.111Z,19.61
2017-03-18T00:39:00.299Z,19.53
2017-03-18T00:39:14.496Z,19.56
2017-03-18T00:39:28.678Z,19.6
2017-03-18T00:39:42.765Z,19.57
2017-03-18T00:39:56.945Z,19.55
2017-03-18T00:40:11.143Z,19.53
2017-03-18T00:40:25.270Z,19.46
2017-03-18T00:40:39.422Z,19.47
2017-03-18T00:40:53.619Z,19.49
2017-03-18T00:41:07.719Z,19.49
2017-03-18T00:41:21.868Z,19.5
2017-03-18T00:41:36.706Z,19.53
2017-03-18T00:41:50.814Z,19.49
2017-03-18T00:42:05.000Z,19.47
2017-03-18T00:42:19.176Z,19.56
2017-03-18T00:42:33.320Z,19.52
2017-03-18T00:42:47.550Z,19.56
2017-03-18T00:43:01.744Z,19.46
2017-03-18T00:43:15.912Z,19.56
2017-03-18T00:43:30.064Z,19.57
2017-03-18T00:43:44.204Z,19.56
2017-03-18T00:43:58.332Z,19.56
2017-03-18T00:44:12.465Z,19.47
2017-03-18T00:44:26.615Z,19.47
2017-03-18T00:44:40.812Z,19.55
2017-03-18T00:44:54.996Z,19.52
2017-03-18T00:45:09.202Z,19.5
2017-03-18T00:45:23.386Z,19.43
2017-03-18T00:45:37.528Z,19.42
2017-03-18T00:45:51.684Z,19.47
2017-03-18T00:46:06.087Z,19.49
2017-03-18T00:46:20.211Z,19.42
2017-03-18T00:46:34.306Z,19.5
2017-03-18T00:46:48.478Z,19.5
2017-03-18T00:47:02.602Z,19.4
2017-03-18T00:47:16.994Z,19.43
2017-03-18T00:47:31.129Z,19.4
2017-03-18T00:47:45.263Z,19.42
2017-03-18T00:47:59.743Z,19.43
2017-03-18T00:48:13.902Z,19.42
2017-03-18T00:48:28.083Z,19.43
2017-03-18T00:48:42.270Z,19.5
2017-03-18T00:48:56.480Z,19.38
2017-03-18T00:49:10.661Z,19.42
2017-03-18T00:49:24.844Z,19.49
2017-03-18T00:49:38.974Z,19.5
2017-03-18T00:49:53.109Z,19.5
2017-03-18T00:50:07.304Z,19.5
2017-03-18T00:50:21.464Z,19.5
2017-03-18T00:50:35.645Z,19.49
2017-03-18T00:50:49.744Z,19.46
2017-03-18T00:51:03.881Z,19.49
2017-03-18T00:51:18.429Z,19.5
2017-03-18T00:51:33.885Z,19.52
2017-03-18T00:51:48.086Z,19.56
2017-03-18T00:52:02.212Z,19.5
2017-03-18T00:52:16.382Z,19.53
2017-03-18T00:52:30.579Z,19.57
2017-03-18T00:52:44.650Z,19.57
2017-03-18T00:52:58.823Z,19.56
2017-03-18T00:53:12.931Z,19.56
2017-03-18T00:53:27.085Z,19.52
2017-03-18T00:53:41.220Z,19.57
2017-03-18T00:53:55.334Z,19.61
2017-03-18T00:54:09.471Z,19.56
2017-03-18T00:54:23.617Z,19.57
2017-03-18T00:54:37.738Z,19.64
2017-03-18T00:54:51.883Z,19.57
2017-03-18T00:55:06.026Z,19.61
2017-03-18T00:55:20.176Z,19.53
2017-03-18T00:55:34.327Z,19.57
2017-03-18T00:55:48.440Z,19.68
2017-03-18T00:56:02.621Z,19.64
2017-03-18T00:56:16.756Z,19.65
2017-03-18T00:56:30.972Z,19.63
2017-03-18T00:56:45.116Z,19.71
2017-03-18T00:56:59.170Z,19.68
2017-03-18T00:57:13.254Z,19.68
2017-03-18T00:57:27.359Z,19.68
2017-03-18T00:57:41.517Z,19.74
2017-03-18T00:57:55.684Z,19.64
2017-03-18T00:58:09.775Z,19.68
2017-03-18T00:58:23.822Z,19.7
2017-03-18T00:58:37.930Z,19.67
2017-03-18T00:58:52.064Z,19.68
2017-03-18T00:59:06.236Z,19.65
2017-03-18T00:59:20.305Z,19.64
2017-03-18T00:59:34.429Z,19.71
2017-03-18T00:59:48.553Z,19.67
2017-03-18T01:00:02.676Z,19.65
2017-03-18T01:00:16.743Z,19.61
2017-03-18T01:00:30.879Z,19.67
2017-03-18T01:00:44.983Z,19.65
2017-03-18T01:00:59.118Z,19.57
2017-03-18T01:01:13.251Z,19.6
2017-03-18T01:01:27.363Z,19.6
2017-03-18T01:01:41.494Z,19.55
2017-03-18T01:01:55.621Z,19.57
2017-03-18T01:02:09.777Z,19.6
2017-03-18T01:02:24.002Z,19.57
2017-03-18T01:02:38.126Z,19.56
2017-03-18T01:02:52.280Z,19.57
2017-03-18T01:03:06.644Z,19.6
2017-03-18T01:03:20.813Z,19.57
2017-03-18T01:03:34.976Z,19.57
2017-03-18T01:03:49.088Z,19.6
2017-03-18T01:04:03.177Z,19.64
2017-03-18T01:04:17.330Z,19.56
2017-03-18T01:04:31.465Z,19.6
2017-03-18T01:04:45.573Z,19.56
2017-03-18T01:04:59.784Z,19.61
2017-03-18T01:05:13.888Z,19.57
2017-03-18T01:05:27.985Z,19.61
2017-03-18T01:05:42.121Z,19.64
2017-03-18T01:05:56.266Z,19.61
2017-03-18T01:06:10.361Z,19.65
2017-03-18T01:06:24.529Z,19.67
2017-03-18T01:06:38.719Z,19.67
2017-03-18T01:06:52.827Z,19.67
2017-03-18T01:07:06.959Z,19.64
2017-03-18T01:07:21.129Z,19.65
2017-03-18T01:07:35.279Z,19.63
2017-03-18T01:07:49.445Z,19.67
2017-03-18T01:08:03.610Z,19.65
2017-03-18T01:08:17.763Z,19.55
2017-03-18T01:08:31.897Z,19.52
2017-03-18T01:08:46.045Z,19.64
2017-03-18T01:09:00.137Z,19.57
2017-03-18T01:09:14.365Z,19.6
2017-03-18T01:09:28.585Z,19.57
2017-03-18T01:09:42.686Z,19.56
2017-03-18T01:09:56.895Z,19.57
2017-03-18T01:10:11.053Z,19.6
2017-03-18T01:10:25.246Z,19.52
2017-03-18T01:10:39.384Z,19.57
2017-03-18T01:10:53.452Z,19.6
2017-03-18T01:11:07.588Z,19.57
2017-03-18T01:11:21.745Z,19.53
2017-03-18T01:11:35.822Z,19.63
2017-03-18T01:11:49.996Z,19.64
2017-03-18T01:12:04.167Z,19.61
2017-03-18T01:12:18.311Z,19.65
2017-03-18T01:12:32.507Z,19.64
2017-03-18T01:12:46.674Z,19.67
2017-03-18T01:13:00.776Z,19.67
2017-03-18T01:13:14.947Z,19.57
2017-03-18T01:13:29.042Z,19.61
2017-03-18T01:13:43.121Z,19.67
2017-03-18T01:13:57.250Z,19.7
2017-03-18T01:14:11.413Z,19.63
2017-03-18T01:14:25.596Z,19.67
2017-03-18T01:14:39.814Z,19.65
2017-03-18T01:14:53.893Z,19.61
2017-03-18T01:15:08.086Z,19.67
2017-03-18T01:15:22.218Z,19.61
2017-03-18T01:15:36.422Z,19.68
2017-03-18T01:15:50.538Z,19.65
2017-03-18T01:16:04.697Z,19.65
2017-03-18T01:16:18.845Z,19.68
2017-03-18T01:16:33.097Z,19.65
2017-03-18T01:16:47.235Z,19.67
2017-03-18T01:17:01.406Z,19.7
2017-03-18T01:17:15.563Z,19.67
2017-03-18T01:17:29.759Z,19.71
2017-03-18T01:17:43.857Z,19.72
2017-03-18T01:17:57.995Z,19.68
2017-03-18T01:18:12.292Z,19.67
2017-03-18T01:18:26.473Z,19.67
2017-03-18T01:18:40.640Z,19.75
2017-03-18T01:18:54.803Z,19.65
2017-03-18T01:19:08.983Z,19.68
2017-03-18T01:19:23.177Z,19.68
2017-03-18T01:19:37.320Z,19.7
2017-03-18T01:19:51.505Z,19.65
2017-03-18T01:20:05.655Z,19.65
2017-03-18T01:20:19.812Z,19.68
2017-03-18T01:20:33.906Z,19.65
2017-03-18T01:20:48.078Z,19.68
2017-03-18T01:21:02.508Z,19.68
2017-03-18T01:21:16.660Z,19.65
2017-03-18T01:21:30.805Z,19.67
2017-03-18T01:21:44.908Z,19.67
2017-03-18T01:21:59.047Z,19.6
2017-03-18T01:22:13.220Z,19.57
2017-03-18T01:22:27.334Z,19.53
2017-03-18T01:22:41.442Z,19.6
2017-03-18T01:22:55.655Z,19.52
2017-03-18T01:23:09.793Z,19.56
2017-03-18T01:23:23.932Z,19.53
2017-03-18T01:23:38.119Z,19.52
2017-03-18T01:23:52.282Z,19.47
2017-03-18T01:24:06.507Z,19.5
2017-03-18T01:24:20.620Z,19.53
2017-03-18T01:24:34.781Z,19.53
2017-03-18T01:24:48.938Z,19.57
2017-03-18T01:25:03.394Z,19.53
2017-03-18T01:25:17.854Z,19.47
2017-03-18T01:25:32.059Z,19.5
2017-03-18T01:25:46.162Z,19.49
2017-03-18T01:26:00.384Z,19.52
2017-03-18T01:26:14.972Z,19.49
2017-03-18T01:26:30.069Z,19.61
2017-03-18T01:26:44.211Z,19.5
2017-03-18T01:26:58.262Z,19.57
2017-03-18T01:27:12.449Z,19.56
2017-03-18T01:27:26.617Z,19.57
2017-03-18T01:27:41.026Z,19.6
2017-03-18T01:27:55.710Z,19.55
2017-03-18T01:28:09.842Z,19.57
2017-03-18T01:28:23.992Z,19.53
2017-03-18T01:28:38.111Z,19.64
2017-03-18T01:28:52.307Z,19.55
2017-03-18T01:29:06.414Z,19.5
2017-03-18T01:29:20.561Z,19.52
2017-03-18T01:29:34.736Z,19.52
2017-03-18T01:29:48.949Z,19.42
2017-03-18T01:30:03.070Z,19.56
2017-03-18T01:30:17.227Z,19.46
2017-03-18T01:30:31.407Z,19.49
2017-03-18T01:30:45.502Z,19.57
2017-03-18T01:30:59.866Z,19.49
2017-03-18T01:31:14.021Z,19.52
2017-03-18T01:31:28.191Z,19.55
2017-03-18T01:31:42.304Z,19.55
2017-03-18T01:31:56.429Z,19.52
2017-03-18T01:32:10.582Z,19.55
2017-03-18T01:32:24.735Z,19.49
2017-03-18T01:32:38.884Z,19.6
2017-03-18T01:32:53.029Z,19.56
2017-03-18T01:33:07.206Z,19.52
2017-03-18T01:33:21.586Z,19.53
2017-03-18T01:33:35.683Z,19.55
2017-03-18T01:33:49.908Z,19.63
2017-03-18T01:34:04.027Z,19.49
2017-03-18T01:34:18.132Z,19.46
2017-03-18T01:34:32.253Z,19.49
2017-03-18T01:34:46.394Z,19.6
2017-03-18T01:35:00.632Z,19.49
2017-03-18T01:35:14.837Z,19.5
2017-03-18T01:35:29.021Z,19.52
2017-03-18T01:35:43.200Z,19.52
2017-03-18T01:35:57.297Z,19.46
2017-03-18T01:36:11.433Z,19.57
2017-03-18T01:36:25.618Z,19.43
2017-03-18T01:36:39.761Z,19.56
2017-03-18T01:36:53.933Z,19.47
2017-03-18T01:37:08.095Z,19.47
2017-03-18T01:37:22.207Z,19.46
2017-03-18T01:37:36.347Z,19.47
2017-03-18T01:37:50.478Z,19.46
2017-03-18T01:38:05.094Z,19.5
2017-03-18T01:38:19.285Z,19.52
2017-03-18T01:38:33.366Z,19.49
2017-03-18T01:38:47.529Z,19.46
2017-03-18T01:39:01.719Z,19.55
2017-03-18T01:39:15.805Z,19.53
2017-03-18T01:39:29.917Z,19.46
2017-03-18T01:39:43.988Z,19.52
2017-03-18T01:39:58.105Z,19.49
2017-03-18T01:40:12.237Z,19.5
2017-03-18T01:40:26.325Z,19.43
2017-03-18T01:40:40.366Z,19.46
2017-03-18T01:40:54.478Z,19.49
2017-03-18T01:41:08.642Z,19.5
2017-03-18T01:41:22.789Z,19.38
2017-03-18T01:41:37.084Z,19.38
2017-03-18T01:41:51.206Z,19.5
2017-03-18T01:42:05.375Z,19.49
2017-03-18T01:42:19.516Z,19.5
2017-03-18T01:42:33.679Z,19.49
2017-03-18T01:42:47.825Z,19.46
2017-03-18T01:43:01.949Z,19.43
2017-03-18T01:43:16.030Z,19.49
2017-03-18T01:43:30.159Z,19.53
2017-03-18T01:43:44.292Z,19.52
2017-03-18T01:43:58.428Z,19.45
2017-03-18T01:44:12.620Z,19.52
2017-03-18T01:44:26.759Z,19.45
2017-03-18T01:44:40.920Z,19.56
2017-03-18T01:44:55.064Z,19.47
2017-03-18T01:45:09.139Z,19.55
2017-03-18T01:45:23.292Z,19.37
2017-03-18T01:45:37.470Z,19.43
2017-03-18T01:45:51.608Z,19.42
2017-03-18T01:46:05.713Z,19.45
2017-03-18T01:46:19.854Z,19.46
2017-03-18T01:46:33.945Z,19.43
2017-03-18T01:46:48.078Z,19.49
2017-03-18T01:47:02.223Z,19.5
2017-03-18T01:47:16.378Z,19.5
2017-03-18T01:47:30.509Z,19.4
2017-03-18T01:47:44.672Z,19.45
2017-03-18T01:47:58.809Z,19.5
2017-03-18T01:48:12.973Z,19.42
2017-03-18T01:48:27.405Z,19.55
2017-03-18T01:48:41.532Z,19.42
2017-03-18T01:48:55.668Z,19.47
2017-03-18T01:49:09.846Z,19.45
2017-03-18T01:49:24.015Z,19.38
2017-03-18T01:49:38.152Z,19.46
2017-03-18T01:49:52.265Z,19.42
2017-03-18T01:50:06.425Z,19.45
2017-03-18T01:50:20.582Z,19.43
2017-03-18T01:50:34.782Z,19.4
2017-03-18T01:50:48.955Z,19.49
2017-03-18T01:51:03.076Z,19.47
2017-03-18T01:51:17.240Z,19.47
2017-03-18T01:51:31.396Z,19.42
2017-03-18T01:51:45.535Z,19.46
2017-03-18T01:51:59.629Z,19.47
2017-03-18T01:52:13.769Z,19.49
2017-03-18T01:52:27.880Z,19.45
2017-03-18T01:52:42.056Z,19.45
2017-03-18T01:52:56.164Z,19.49
2017-03-18T01:53:10.424Z,19.45
2017-03-18T01:53:24.572Z,19.45
2017-03-18T01:53:38.642Z,19.45
2017-03-18T01:53:52.784Z,19.4
2017-03-18T01:54:06.923Z,19.38
2017-03-18T01:54:21.097Z,19.38
2017-03-18T01:54:35.238Z,19.4
2017-03-18T01:54:49.370Z,19.4
2017-03-18T01:55:03.589Z,19.38
2017-03-18T01:55:17.678Z,19.46
2017-03-18T01:55:31.794Z,19.47
2017-03-18T01:55:45.891Z,19.45
2017-03-18T01:56:00.054Z,19.46
2017-03-18T01:56:14.191Z,19.42
2017-03-18T01:56:28.313Z,19.45
2017-03-18T01:56:42.512Z,19.42
2017-03-18T01:56:56.616Z,19.46
2017-03-18T01:57:10.734Z,19.45
2017-03-18T01:57:24.983Z,19.43
2017-03-18T01:57:39.099Z,19.38
2017-03-18T01:57:53.192Z,19.42
2017-03-18T01:58:07.326Z,19.42
2017-03-18T01:58:21.477Z,19.4
2017-03-18T01:58:35.654Z,19.42
2017-03-18T01:58:49.780Z,19.45
2017-03-18T01:59:03.919Z,19.52
2017-03-18T01:59:18.051Z,19.42
2017-03-18T01:59:32.163Z,19.4
2017-03-18T01:59:46.319Z,19.46
2017-03-18T02:00:00.637Z,19.42
2017-03-18T02:00:14.726Z,19.45
2017-03-18T02:00:28.913Z,19.37
2017-03-18T02:00:43.022Z,19.37
2017-03-18T02:00:57.141Z,19.42
2017-03-18T02:01:11.307Z,19.42
2017-03-18T02:01:25.515Z,19.42
2017-03-18T02:01:39.661Z,19.46
2017-03-18T02:01:53.785Z,19.45
2017-03-18T02:02:07.944Z,19.52
2017-03-18T02:02:22.085Z,19.47
2017-03-18T02:02:36.180Z,19.56
2017-03-18T02:02:50.323Z,19.5
2017-03-18T02:03:04.460Z,19.4
2017-03-18T02:03:18.650Z,19.47
2017-03-18T02:03:33.010Z,19.46
2017-03-18T02:03:47.193Z,19.38
2017-03-18T02:04:01.312Z,19.4
2017-03-18T02:04:15.706Z,19.49
2017-03-18T02:04:29.887Z,19.5
2017-03-18T02:04:44.023Z,19.38
2017-03-18T02:04:58.127Z,19.37
2017-03-18T02:05:12.270Z,19.43
2017-03-18T02:05:26.456Z,19.45
2017-03-18T02:05:40.623Z,19.43
2017-03-18T02:05:54.739Z,19.42
2017-03-18T02:06:08.876Z,19.49
2017-03-18T02:06:22.980Z,19.5
2017-03-18T02:06:37.094Z,19.52
2017-03-18T02:06:51.280Z,19.5
2017-03-18T02:07:05.400Z,19.49
2017-03-18T02:07:19.643Z,19.49
2017-03-18T02:07:33.842Z,19.47
2017-03-18T02:07:48.002Z,19.49
2017-03-18T02:08:02.202Z,19.49
2017-03-18T02:08:16.410Z,19.53
2017-03-18T02:08:30.551Z,19.45
2017-03-18T02:08:44.696Z,19.5
2017-03-18T02:08:58.885Z,19.52
2017-03-18T02:09:13.035Z,19.56
2017-03-18T02:09:27.145Z,19.45
2017-03-18T02:09:41.339Z,19.57
2017-03-18T02:09:55.524Z,19.55
2017-03-18T02:10:09.700Z,19.61
2017-03-18T02:10:23.831Z,19.53
2017-03-18T02:10:37.985Z,19.55
2017-03-18T02:10:52.142Z,19.61
2017-03-18T02:11:06.268Z,19.6
2017-03-18T02:11:20.432Z,19.53
2017-03-18T02:11:34.584Z,19.56
2017-03-18T02:11:48.685Z,19.57
2017-03-18T02:12:02.852Z,19.57
2017-03-18T02:12:16.955Z,19.61
2017-03-18T02:12:31.174Z,19.6
2017-03-18T02:12:45.358Z,19.56
2017-03-18T02:12:59.486Z,19.6
2017-03-18T02:13:13.647Z,19.61
2017-03-18T02:13:27.765Z,19.64
2017-03-18T02:13:41.974Z,19.57
2017-03-18T02:13:56.127Z,19.52
2017-03-18T02:14:10.221Z,19.55
2017-03-18T02:14:24.384Z,19.6
2017-03-18T02:14:38.521Z,19.56
2017-03-18T02:14:52.679Z,19.57
2017-03-18T02:15:06.752Z,19.61
2017-03-18T02:15:20.865Z,19.55
2017-03-18T02:15:34.969Z,19.63
2017-03-18T02:15:49.072Z,19.64
2017-03-18T02:16:03.211Z,19.6
2017-03-18T02:16:17.332Z,19.65
2017-03-18T02:16:31.461Z,19.64
2017-03-18T02:16:45.631Z,19.65
2017-03-18T02:16:59.753Z,19.57
2017-03-18T02:17:13.912Z,19.56
2017-03-18T02:17:28.070Z,19.63
2017-03-18T02:17:42.238Z,19.64
2017-03-18T02:17:56.495Z,19.63
2017-03-18T02:18:10.585Z,19.63
2017-03-18T02:18:24.840Z,19.61
2017-03-18T02:18:39.191Z,19.65
2017-03-18T02:18:53.349Z,19.57
2017-03-18T02:19:07.522Z,19.61
2017-03-18T02:19:21.670Z,19.53
2017-03-18T02:19:35.762Z,19.61
2017-03-18T02:19:49.903Z,19.56
2017-03-18T02:20:04.043Z,19.56
2017-03-18T02:20:18.199Z,19.56
2017-03-18T02:20:32.314Z,19.56
2017-03-18T02:20:46.425Z,19.6
2017-03-18T02:21:00.557Z,19.57
2017-03-18T02:21:14.750Z,19.56
2017-03-18T02:21:28.811Z,19.57
2017-03-18T02:21:42.941Z,19.57
2017-03-18T02:21:57.079Z,19.61
2017-03-18T02:22:11.218Z,19.6
2017-03-18T02:22:25.337Z,19.57
2017-03-18T02:22:39.510Z,19.6
2017-03-18T02:22:53.651Z,19.57
2017-03-18T02:23:07.754Z,19.57
2017-03-18T02:23:21.997Z,19.55
2017-03-18T02:23:36.188Z,19.63
2017-03-18T02:23:50.356Z,19.56
2017-03-18T02:24:04.522Z,19.56
2017-03-18T02:24:18.694Z,19.56
2017-03-18T02:24:32.745Z,19.6
2017-03-18T02:24:46.921Z,19.53
2017-03-18T02:25:01.109Z,19.56
2017-03-18T02:25:15.269Z,19.6
2017-03-18T02:25:29.368Z,19.57
2017-03-18T02:25:43.429Z,19.57
2017-03-18T02:25:57.561Z,19.57
2017-03-18T02:26:11.714Z,19.56
2017-03-18T02:26:25.824Z,19.61
2017-03-18T02:26:39.942Z,19.57
2017-03-18T02:26:54.021Z,19.61
2017-03-18T02:27:08.233Z,19.57
2017-03-18T02:27:22.370Z,19.57
2017-03-18T02:27:36.475Z,19.57
2017-03-18T02:27:50.565Z,19.6
2017-03-18T02:28:04.721Z,19.56
2017-03-18T02:28:18.800Z,19.55
2017-03-18T02:28:32.975Z,19.53
2017-03-18T02:28:47.113Z,19.6
2017-03-18T02:29:01.255Z,19.53
2017-03-18T02:29:15.457Z,19.56
2017-03-18T02:29:29.580Z,19.53
2017-03-18T02:29:43.664Z,19.52
2017-03-18T02:29:57.794Z,19.47
2017-03-18T02:30:11.913Z,19.49
2017-03-18T02:30:26.012Z,19.6
2017-03-18T02:30:40.211Z,19.53
2017-03-18T02:30:54.377Z,19.52
2017-03-18T02:31:08.507Z,19.6
2017-03-18T02:31:22.640Z,19.56
2017-03-18T02:31:36.748Z,19.53
2017-03-18T02:31:50.852Z,19.57
2017-03-18T02:32:04.944Z,19.6
2017-03-18T02:32:19.104Z,19.63
2017-03-18T02:32:33.245Z,19.6
2017-03-18T02:32:47.390Z,19.56
2017-03-18T02:33:01.520Z,19.57
2017-03-18T02:33:15.635Z,19.61
2017-03-18T02:33:29.729Z,19.6
2017-03-18T02:33:43.985Z,19.68
2017-03-18T02:33:58.131Z,19.65
2017-03-18T02:34:12.293Z,19.64
2017-03-18T02:34:26.401Z,19.68
2017-03-18T02:34:40.536Z,19.64
2017-03-18T02:34:54.689Z,19.65
2017-03-18T02:35:08.808Z,19.63
2017-03-18T02:35:22.937Z,19.63
2017-03-18T02:35:37.108Z,19.64
2017-03-18T02:35:51.278Z,19.7
2017-03-18T02:36:05.422Z,19.68
2017-03-18T02:36:19.550Z,19.7
2017-03-18T02:36:33.692Z,19.67
2017-03-18T02:36:47.890Z,19.68
2017-03-18T02:37:02.031Z,19.7
2017-03-18T02:37:16.168Z,19.7
2017-03-18T02:37:30.302Z,19.68
2017-03-18T02:37:44.455Z,19.7
2017-03-18T02:37:58.541Z,19.68
2017-03-18T02:38:12.718Z,19.7
2017-03-18T02:38:26.856Z,19.67
2017-03-18T02:38:40.977Z,19.7
2017-03-18T02:38:55.089Z,19.72
2017-03-18T02:39:09.248Z,19.72
2017-03-18T02:39:23.334Z,19.67
2017-03-18T02:39:37.593Z,19.67
2017-03-18T02:39:51.728Z,19.7
2017-03-18T02:40:05.933Z,19.75
2017-03-18T02:40:20.034Z,19.71
2017-03-18T02:40:34.225Z,19.68
2017-03-18T02:40:48.428Z,19.7
2017-03-18T02:41:02.616Z,19.7
2017-03-18T02:41:16.829Z,19.7
2017-03-18T02:41:30.900Z,19.72
2017-03-18T02:41:45.036Z,19.67
2017-03-18T02:41:59.141Z,19.68
2017-03-18T02:42:13.242Z,19.7
2017-03-18T02:42:27.319Z,19.64
2017-03-18T02:42:41.467Z,19.63
2017-03-18T02:42:55.610Z,19.65
2017-03-18T02:43:09.727Z,19.65
2017-03-18T02:43:23.862Z,19.61
2017-03-18T02:43:37.945Z,19.64
2017-03-18T02:43:52.008Z,19.63
2017-03-18T02:44:06.143Z,19.63
2017-03-18T02:44:20.259Z,19.68
2017-03-18T02:44:34.427Z,19.65
2017-03-18T02:44:48.559Z,19.65
2017-03-18T02:45:02.726Z,19.65
2017-03-18T02:45:16.926Z,19.64
2017-03-18T02:45:31.042Z,19.67
2017-03-18T02:45:45.181Z,19.7
2017-03-18T02:45:59.354Z,19.68
2017-03-18T02:46:13.481Z,19.63
2017-03-18T02:46:27.565Z,19.68
2017-03-18T02:46:41.728Z,19.68
2017-03-18T02:46:55.828Z,19.65
2017-03-18T02:47:09.960Z,19.7
2017-03-18T02:47:24.042Z,19.74
2017-03-18T02:47:38.355Z,19.63
2017-03-18T02:47:52.490Z,19.68
2017-03-18T02:48:06.571Z,19.68
2017-03-18T02:48:20.716Z,19.61
2017-03-18T02:48:34.857Z,19.63
2017-03-18T02:48:49.057Z,19.63
2017-03-18T02:49:03.342Z,19.64
2017-03-18T02:49:17.470Z,19.64
2017-03-18T02:49:31.687Z,19.65
2017-03-18T02:49:45.805Z,19.64
2017-03-18T02:49:59.987Z,19.7
2017-03-18T02:50:14.119Z,19.63
2017-03-18T02:50:28.171Z,19.67
2017-03-18T02:50:42.323Z,19.67
2017-03-18T02:50:56.465Z,19.67
2017-03-18T02:51:10.633Z,19.6
2017-03-18T02:51:24.749Z,19.67
2017-03-18T02:51:38.941Z,19.64
2017-03-18T02:51:53.142Z,19.64
2017-03-18T02:52:07.237Z,19.6
2017-03-18T02:52:21.329Z,19.7
2017-03-18T02:52:35.382Z,19.56
2017-03-18T02:52:49.504Z,19.64
2017-03-18T02:53:03.649Z,19.57
2017-03-18T02:53:17.721Z,19.64
2017-03-18T02:53:31.898Z,19.64
2017-03-18T02:53:45.998Z,19.61
2017-03-18T02:54:00.069Z,19.67
2017-03-18T02:54:14.259Z,19.61
2017-03-18T02:54:28.451Z,19.63
2017-03-18T02:54:42.625Z,19.64
2017-03-18T02:54:56.710Z,19.65
2017-03-18T02:55:11.004Z,19.64
2017-03-18T02:55:25.105Z,19.55
2017-03-18T02:55:39.272Z,19.61
2017-03-18T02:55:53.376Z,19.56
2017-03-18T02:56:07.530Z,19.57
2017-03-18T02:56:21.659Z,19.57
2017-03-18T02:56:35.753Z,19.64
2017-03-18T02:56:49.937Z,19.6
2017-03-18T02:57:04.048Z,19.65
2017-03-18T02:57:18.133Z,19.67
2017-03-18T02:57:32.308Z,19.63
2017-03-18T02:57:46.516Z,19.64
2017-03-18T02:58:00.566Z,19.57
2017-03-18T02:58:14.659Z,19.57
2017-03-18T02:58:28.819Z,19.61
2017-03-18T02:58:42.956Z,19.63
2017-03-18T02:58:57.131Z,19.63
2017-03-18T02:59:11.248Z,19.63
2017-03-18T02:59:25.341Z,19.61
2017-03-18T02:59:39.452Z,19.68
2017-03-18T02:59:53.615Z,19.61
2017-03-18T03:00:07.792Z,19.65
2017-03-18T03:00:21.849Z,19.68
2017-03-18T03:00:35.974Z,19.65
2017-03-18T03:00:50.069Z,19.63
2017-03-18T03:01:04.136Z,19.61
2017-03-18T03:01:18.255Z,19.64
2017-03-18T03:01:32.387Z,19.53
2017-03-18T03:01:46.504Z,19.63
2017-03-18T03:02:00.617Z,19.63
2017-03-18T03:02:14.753Z,19.67
2017-03-18T03:02:28.886Z,19.67
2017-03-18T03:02:43.037Z,19.64
2017-03-18T03:02:57.206Z,19.61
2017-03-18T03:03:11.318Z,19.57
2017-03-18T03:03:25.421Z,19.63